sensor_id;sensor_type;location;lat;lon;timestamp;P1;durP1;ratioP1;P2;durP2;ratioP2
14414;SDS011;7307;50.852;4.314;2022-08-03T00:01:27;4.10;;;1.30;;
14414;SDS011;7307;50.852;4.314;2022-08-03T00:03:53;2.90;;;1.20;;
14414;SDS011;7307;50.852;4.314;2022-08-03T00:06:19;2.33;;;1.20;;
14414;SDS011;7307;50.852;4.314;2022-08-03T00:08:45;2.75;;;1.02;;
14414;SDS011;7307;50.852;4.314;2022-08-03T00:11:10;3.97;;;1.58;;
14414;SDS011;7307;50.852;4.314;2022-08-03T00:13:36;4.30;;;1.27;;
14414;SDS011;7307;50.852;4.314;2022-08-03T00:16:02;4.18;;;1.40;;
14414;SDS011;7307;50.852;4.314;2022-08-03T00:18:28;3.20;;;1.10;;
14414;SDS011;7307;50.852;4.314;2022-08-03T00:20:57;4.57;;;1.23;;
14414;SDS011;7307;50.852;4.314;2022-08-03T00:23:22;3.72;;;1.30;;
14414;SDS011;7307;50.852;4.314;2022-08-03T00:25:48;4.40;;;1.20;;
14414;SDS011;7307;50.852;4.314;2022-08-03T00:28:14;4.82;;;1.40;;
14414;SDS011;7307;50.852;4.314;2022-08-03T00:30:40;3.40;;;1.40;;
14414;SDS011;7307;50.852;4.314;2022-08-03T00:33:05;3.47;;;1.17;;
14414;SDS011;7307;50.852;4.314;2022-08-03T00:35:31;5.63;;;1.55;;
14414;SDS011;7307;50.852;4.314;2022-08-03T00:37:57;4.30;;;1.67;;
14414;SDS011;7307;50.852;4.314;2022-08-03T00:40:23;2.50;;;1.27;;
14414;SDS011;7307;50.852;4.314;2022-08-03T00:42:49;3.35;;;1.42;;
14414;SDS011;7307;50.852;4.314;2022-08-03T00:45:19;5.70;;;1.55;;
14414;SDS011;7307;50.852;4.314;2022-08-03T00:47:46;4.97;;;1.55;;
14414;SDS011;7307;50.852;4.314;2022-08-03T00:50:12;9.13;;;1.77;;
14414;SDS011;7307;50.852;4.314;2022-08-03T00:52:38;7.45;;;1.70;;
14414;SDS011;7307;50.852;4.314;2022-08-03T00:55:04;4.47;;;1.75;;
14414;SDS011;7307;50.852;4.314;2022-08-03T00:57:30;6.47;;;1.40;;
14414;SDS011;7307;50.852;4.314;2022-08-03T01:00:00;6.45;;;1.60;;
14414;SDS011;7307;50.852;4.314;2022-08-03T01:02:26;7.68;;;1.80;;
14414;SDS011;7307;50.852;4.314;2022-08-03T01:04:53;5.13;;;1.58;;
14414;SDS011;7307;50.852;4.314;2022-08-03T01:09:57;4.85;;;1.45;;
14414;SDS011;7307;50.852;4.314;2022-08-03T01:12:53;4.32;;;1.27;;
14414;SDS011;7307;50.852;4.314;2022-08-03T01:15:38;9.00;;;1.92;;
14414;SDS011;7307;50.852;4.314;2022-08-03T01:18:27;4.40;;;1.80;;
14414;SDS011;7307;50.852;4.314;2022-08-03T01:20:56;4.57;;;1.40;;
14414;SDS011;7307;50.852;4.314;2022-08-03T01:23:34;4.63;;;1.65;;
14414;SDS011;7307;50.852;4.314;2022-08-03T01:32:01;5.38;;;1.40;;
14414;SDS011;7307;50.852;4.314;2022-08-03T01:34:33;6.32;;;1.90;;
14414;SDS011;7307;50.852;4.314;2022-08-03T01:37:05;9.18;;;2.00;;
14414;SDS011;7307;50.852;4.314;2022-08-03T01:39:33;8.80;;;1.73;;
14414;SDS011;7307;50.852;4.314;2022-08-03T01:42:03;5.97;;;1.70;;
14414;SDS011;7307;50.852;4.314;2022-08-03T01:44:36;8.10;;;1.95;;
14414;SDS011;7307;50.852;4.314;2022-08-03T01:47:04;6.97;;;1.83;;
14414;SDS011;7307;50.852;4.314;2022-08-03T01:49:32;5.35;;;1.90;;
14414;SDS011;7307;50.852;4.314;2022-08-03T01:52:03;8.15;;;1.48;;
14414;SDS011;7307;50.852;4.314;2022-08-03T01:54:31;5.53;;;1.77;;
14414;SDS011;7307;50.852;4.314;2022-08-03T01:57:00;5.28;;;1.85;;
14414;SDS011;7307;50.852;4.314;2022-08-03T01:59:28;7.53;;;1.73;;
14414;SDS011;7307;50.852;4.314;2022-08-03T02:01:56;4.25;;;1.52;;
14414;SDS011;7307;50.852;4.314;2022-08-03T02:04:23;8.13;;;1.83;;
14414;SDS011;7307;50.852;4.314;2022-08-03T02:06:51;6.07;;;1.52;;
14414;SDS011;7307;50.852;4.314;2022-08-03T02:09:19;6.88;;;1.75;;
14414;SDS011;7307;50.852;4.314;2022-08-03T02:11:45;5.60;;;1.52;;
14414;SDS011;7307;50.852;4.314;2022-08-03T02:14:11;5.72;;;1.60;;
14414;SDS011;7307;50.852;4.314;2022-08-03T02:16:40;6.47;;;1.90;;
14414;SDS011;7307;50.852;4.314;2022-08-03T02:19:07;9.70;;;2.40;;
14414;SDS011;7307;50.852;4.314;2022-08-03T02:21:35;9.57;;;1.90;;
14414;SDS011;7307;50.852;4.314;2022-08-03T02:24:02;7.28;;;1.55;;
14414;SDS011;7307;50.852;4.314;2022-08-03T02:26:29;4.53;;;1.65;;
14414;SDS011;7307;50.852;4.314;2022-08-03T02:28:57;5.25;;;1.38;;
14414;SDS011;7307;50.852;4.314;2022-08-03T02:31:27;5.80;;;1.70;;
14414;SDS011;7307;50.852;4.314;2022-08-03T02:34:01;5.60;;;1.67;;
14414;SDS011;7307;50.852;4.314;2022-08-03T02:36:31;4.68;;;1.58;;
14414;SDS011;7307;50.852;4.314;2022-08-03T02:39:01;5.70;;;1.67;;
14414;SDS011;7307;50.852;4.314;2022-08-03T02:41:34;6.78;;;1.80;;
14414;SDS011;7307;50.852;4.314;2022-08-03T02:44:08;7.28;;;1.88;;
14414;SDS011;7307;50.852;4.314;2022-08-03T02:46:40;6.10;;;1.80;;
14414;SDS011;7307;50.852;4.314;2022-08-03T02:49:09;3.90;;;1.38;;
14414;SDS011;7307;50.852;4.314;2022-08-03T02:51:37;4.53;;;1.50;;
14414;SDS011;7307;50.852;4.314;2022-08-03T02:54:04;3.67;;;1.73;;
14414;SDS011;7307;50.852;4.314;2022-08-03T02:56:33;10.20;;;1.60;;
14414;SDS011;7307;50.852;4.314;2022-08-03T02:59:00;5.47;;;1.80;;
14414;SDS011;7307;50.852;4.314;2022-08-03T03:01:27;5.80;;;1.60;;
14414;SDS011;7307;50.852;4.314;2022-08-03T03:03:55;5.03;;;1.40;;
14414;SDS011;7307;50.852;4.314;2022-08-03T03:06:23;2.55;;;1.48;;
14414;SDS011;7307;50.852;4.314;2022-08-03T03:08:50;3.58;;;1.75;;
14414;SDS011;7307;50.852;4.314;2022-08-03T03:11:17;4.13;;;1.75;;
14414;SDS011;7307;50.852;4.314;2022-08-03T03:13:46;4.75;;;1.70;;
14414;SDS011;7307;50.852;4.314;2022-08-03T03:16:13;4.93;;;1.60;;
14414;SDS011;7307;50.852;4.314;2022-08-03T03:18:40;5.38;;;1.45;;
14414;SDS011;7307;50.852;4.314;2022-08-03T03:21:09;3.97;;;1.33;;
14414;SDS011;7307;50.852;4.314;2022-08-03T03:23:38;3.33;;;1.52;;
14414;SDS011;7307;50.852;4.314;2022-08-03T03:26:05;4.05;;;1.38;;
14414;SDS011;7307;50.852;4.314;2022-08-03T03:28:31;8.70;;;1.92;;
14414;SDS011;7307;50.852;4.314;2022-08-03T03:30:57;1.73;;;1.30;;
14414;SDS011;7307;50.852;4.314;2022-08-03T03:33:24;5.47;;;1.58;;
14414;SDS011;7307;50.852;4.314;2022-08-03T03:35:50;4.10;;;1.60;;
14414;SDS011;7307;50.852;4.314;2022-08-03T03:38:17;8.18;;;1.42;;
14414;SDS011;7307;50.852;4.314;2022-08-03T03:40:43;3.92;;;1.38;;
14414;SDS011;7307;50.852;4.314;2022-08-03T03:43:10;4.65;;;1.83;;
14414;SDS011;7307;50.852;4.314;2022-08-03T03:45:36;5.47;;;1.77;;
14414;SDS011;7307;50.852;4.314;2022-08-03T03:48:04;5.55;;;1.60;;
14414;SDS011;7307;50.852;4.314;2022-08-03T03:50:31;4.88;;;1.88;;
14414;SDS011;7307;50.852;4.314;2022-08-03T03:52:58;4.47;;;1.80;;
14414;SDS011;7307;50.852;4.314;2022-08-03T03:55:23;5.57;;;2.15;;
14414;SDS011;7307;50.852;4.314;2022-08-03T03:57:49;3.42;;;1.83;;
14414;SDS011;7307;50.852;4.314;2022-08-03T04:00:15;4.78;;;2.28;;
14414;SDS011;7307;50.852;4.314;2022-08-03T04:02:43;7.85;;;1.90;;
14414;SDS011;7307;50.852;4.314;2022-08-03T04:05:09;6.18;;;2.10;;
14414;SDS011;7307;50.852;4.314;2022-08-03T04:08:00;4.00;;;1.58;;
14414;SDS011;7307;50.852;4.314;2022-08-03T04:11:02;5.35;;;1.65;;
14414;SDS011;7307;50.852;4.314;2022-08-03T04:13:41;4.20;;;1.60;;
14414;SDS011;7307;50.852;4.314;2022-08-03T04:16:11;7.20;;;1.90;;
14414;SDS011;7307;50.852;4.314;2022-08-03T04:18:42;6.25;;;2.05;;
14414;SDS011;7307;50.852;4.314;2022-08-03T04:21:12;3.70;;;1.70;;
14414;SDS011;7307;50.852;4.314;2022-08-03T04:23:43;4.88;;;1.50;;
14414;SDS011;7307;50.852;4.314;2022-08-03T04:26:13;4.22;;;1.90;;
14414;SDS011;7307;50.852;4.314;2022-08-03T04:28:42;4.55;;;1.50;;
14414;SDS011;7307;50.852;4.314;2022-08-03T04:31:11;6.28;;;1.90;;
14414;SDS011;7307;50.852;4.314;2022-08-03T04:33:38;7.22;;;1.73;;
14414;SDS011;7307;50.852;4.314;2022-08-03T04:36:06;8.38;;;1.63;;
14414;SDS011;7307;50.852;4.314;2022-08-03T04:38:43;3.70;;;1.50;;
14414;SDS011;7307;50.852;4.314;2022-08-03T04:41:29;4.38;;;1.80;;
14414;SDS011;7307;50.852;4.314;2022-08-03T04:43:56;5.72;;;1.55;;
14414;SDS011;7307;50.852;4.314;2022-08-03T04:46:30;5.90;;;2.05;;
14414;SDS011;7307;50.852;4.314;2022-08-03T04:48:59;7.20;;;2.17;;
14414;SDS011;7307;50.852;4.314;2022-08-03T04:51:26;5.93;;;2.05;;
14414;SDS011;7307;50.852;4.314;2022-08-03T04:53:52;5.00;;;2.50;;
14414;SDS011;7307;50.852;4.314;2022-08-03T04:56:18;5.47;;;2.47;;
14414;SDS011;7307;50.852;4.314;2022-08-03T04:58:43;5.45;;;2.38;;
14414;SDS011;7307;50.852;4.314;2022-08-03T05:01:09;7.95;;;2.40;;
14414;SDS011;7307;50.852;4.314;2022-08-03T05:03:35;7.13;;;2.42;;
14414;SDS011;7307;50.852;4.314;2022-08-03T05:06:01;3.40;;;1.75;;
14414;SDS011;7307;50.852;4.314;2022-08-03T05:08:27;5.25;;;2.10;;
14414;SDS011;7307;50.852;4.314;2022-08-03T05:10:53;5.07;;;2.25;;
14414;SDS011;7307;50.852;4.314;2022-08-03T05:13:19;8.48;;;1.75;;
14414;SDS011;7307;50.852;4.314;2022-08-03T05:15:44;9.82;;;1.88;;
14414;SDS011;7307;50.852;4.314;2022-08-03T05:18:10;6.63;;;1.92;;
14414;SDS011;7307;50.852;4.314;2022-08-03T05:20:36;4.75;;;1.95;;
14414;SDS011;7307;50.852;4.314;2022-08-03T05:23:01;7.65;;;2.08;;
14414;SDS011;7307;50.852;4.314;2022-08-03T05:25:28;6.57;;;1.88;;
14414;SDS011;7307;50.852;4.314;2022-08-03T05:27:53;4.13;;;1.67;;
14414;SDS011;7307;50.852;4.314;2022-08-03T05:30:19;6.10;;;2.15;;
14414;SDS011;7307;50.852;4.314;2022-08-03T05:32:45;4.88;;;2.00;;
14414;SDS011;7307;50.852;4.314;2022-08-03T05:35:11;8.30;;;2.88;;
14414;SDS011;7307;50.852;4.314;2022-08-03T05:37:36;10.45;;;2.25;;
14414;SDS011;7307;50.852;4.314;2022-08-03T05:40:03;5.70;;;1.95;;
14414;SDS011;7307;50.852;4.314;2022-08-03T05:42:29;6.65;;;1.98;;
14414;SDS011;7307;50.852;4.314;2022-08-03T05:44:55;5.70;;;1.83;;
14414;SDS011;7307;50.852;4.314;2022-08-03T05:47:20;11.65;;;2.70;;
14414;SDS011;7307;50.852;4.314;2022-08-03T05:49:46;12.40;;;2.55;;
14414;SDS011;7307;50.852;4.314;2022-08-03T05:52:12;9.70;;;2.40;;
14414;SDS011;7307;50.852;4.314;2022-08-03T05:54:37;27.80;;;7.65;;
14414;SDS011;7307;50.852;4.314;2022-08-03T05:57:03;13.20;;;3.42;;
14414;SDS011;7307;50.852;4.314;2022-08-03T05:59:29;10.80;;;2.45;;
14414;SDS011;7307;50.852;4.314;2022-08-03T06:01:55;14.05;;;2.80;;
14414;SDS011;7307;50.852;4.314;2022-08-03T06:04:20;10.18;;;2.55;;
14414;SDS011;7307;50.852;4.314;2022-08-03T06:06:46;9.07;;;2.63;;
14414;SDS011;7307;50.852;4.314;2022-08-03T06:09:12;10.32;;;2.45;;
14414;SDS011;7307;50.852;4.314;2022-08-03T06:11:39;12.02;;;2.58;;
14414;SDS011;7307;50.852;4.314;2022-08-03T06:14:06;11.25;;;3.00;;
14414;SDS011;7307;50.852;4.314;2022-08-03T06:16:31;9.82;;;2.47;;
14414;SDS011;7307;50.852;4.314;2022-08-03T06:18:57;9.82;;;2.67;;
14414;SDS011;7307;50.852;4.314;2022-08-03T06:21:23;8.55;;;2.10;;
14414;SDS011;7307;50.852;4.314;2022-08-03T06:23:49;5.18;;;2.25;;
14414;SDS011;7307;50.852;4.314;2022-08-03T06:26:14;5.15;;;2.28;;
14414;SDS011;7307;50.852;4.314;2022-08-03T06:28:40;7.88;;;2.30;;
14414;SDS011;7307;50.852;4.314;2022-08-03T06:31:08;9.65;;;2.00;;
14414;SDS011;7307;50.852;4.314;2022-08-03T06:33:33;6.50;;;2.10;;
14414;SDS011;7307;50.852;4.314;2022-08-03T06:35:59;6.75;;;2.58;;
14414;SDS011;7307;50.852;4.314;2022-08-03T06:38:24;5.45;;;2.00;;
14414;SDS011;7307;50.852;4.314;2022-08-03T06:40:50;7.32;;;2.30;;
14414;SDS011;7307;50.852;4.314;2022-08-03T06:43:16;3.47;;;1.80;;
14414;SDS011;7307;50.852;4.314;2022-08-03T06:45:41;7.28;;;2.30;;
14414;SDS011;7307;50.852;4.314;2022-08-03T06:48:08;5.88;;;1.77;;
14414;SDS011;7307;50.852;4.314;2022-08-03T06:50:35;5.82;;;1.92;;
14414;SDS011;7307;50.852;4.314;2022-08-03T06:53:02;10.65;;;2.08;;
14414;SDS011;7307;50.852;4.314;2022-08-03T06:55:29;9.23;;;2.50;;
14414;SDS011;7307;50.852;4.314;2022-08-03T06:57:55;6.07;;;2.08;;
14414;SDS011;7307;50.852;4.314;2022-08-03T07:00:21;8.48;;;2.25;;
14414;SDS011;7307;50.852;4.314;2022-08-03T07:02:47;6.15;;;2.00;;
14414;SDS011;7307;50.852;4.314;2022-08-03T07:05:13;3.67;;;1.52;;
14414;SDS011;7307;50.852;4.314;2022-08-03T07:07:39;6.05;;;2.08;;
14414;SDS011;7307;50.852;4.314;2022-08-03T07:10:05;3.58;;;1.48;;
14414;SDS011;7307;50.852;4.314;2022-08-03T07:12:32;5.90;;;2.08;;
14414;SDS011;7307;50.852;4.314;2022-08-03T07:14:58;6.57;;;1.90;;
14414;SDS011;7307;50.852;4.314;2022-08-03T07:17:25;5.32;;;1.92;;
14414;SDS011;7307;50.852;4.314;2022-08-03T07:19:51;3.97;;;1.83;;
14414;SDS011;7307;50.852;4.314;2022-08-03T07:22:16;4.32;;;1.45;;
14414;SDS011;7307;50.852;4.314;2022-08-03T07:24:42;4.90;;;1.92;;
14414;SDS011;7307;50.852;4.314;2022-08-03T07:27:08;7.90;;;1.70;;
14414;SDS011;7307;50.852;4.314;2022-08-03T07:29:34;7.28;;;2.38;;
14414;SDS011;7307;50.852;4.314;2022-08-03T07:32:01;3.63;;;1.70;;
14414;SDS011;7307;50.852;4.314;2022-08-03T07:34:27;5.28;;;1.90;;
14414;SDS011;7307;50.852;4.314;2022-08-03T07:36:53;4.05;;;1.90;;
14414;SDS011;7307;50.852;4.314;2022-08-03T07:39:18;4.20;;;2.00;;
14414;SDS011;7307;50.852;4.314;2022-08-03T07:41:44;5.20;;;2.05;;
14414;SDS011;7307;50.852;4.314;2022-08-03T07:44:10;4.80;;;1.80;;
14414;SDS011;7307;50.852;4.314;2022-08-03T07:46:36;4.90;;;1.75;;
14414;SDS011;7307;50.852;4.314;2022-08-03T07:49:01;6.22;;;1.60;;
14414;SDS011;7307;50.852;4.314;2022-08-03T07:51:27;4.82;;;1.75;;
14414;SDS011;7307;50.852;4.314;2022-08-03T07:53:53;4.97;;;1.60;;
14414;SDS011;7307;50.852;4.314;2022-08-03T07:56:21;5.53;;;1.90;;
14414;SDS011;7307;50.852;4.314;2022-08-03T07:58:48;8.85;;;2.78;;
14414;SDS011;7307;50.852;4.314;2022-08-03T08:01:15;4.07;;;1.95;;
14414;SDS011;7307;50.852;4.314;2022-08-03T08:03:41;5.10;;;1.80;;
14414;SDS011;7307;50.852;4.314;2022-08-03T08:06:06;5.47;;;1.63;;
14414;SDS011;7307;50.852;4.314;2022-08-03T08:08:32;5.03;;;1.90;;
14414;SDS011;7307;50.852;4.314;2022-08-03T08:10:58;5.43;;;1.90;;
14414;SDS011;7307;50.852;4.314;2022-08-03T08:13:24;4.93;;;1.52;;
14414;SDS011;7307;50.852;4.314;2022-08-03T08:15:50;3.42;;;1.70;;
14414;SDS011;7307;50.852;4.314;2022-08-03T08:18:15;4.97;;;1.67;;
14414;SDS011;7307;50.852;4.314;2022-08-03T08:20:42;3.45;;;1.70;;
14414;SDS011;7307;50.852;4.314;2022-08-03T08:23:07;4.15;;;1.60;;
14414;SDS011;7307;50.852;4.314;2022-08-03T08:25:33;6.15;;;1.67;;
14414;SDS011;7307;50.852;4.314;2022-08-03T08:27:59;3.92;;;1.85;;
14414;SDS011;7307;50.852;4.314;2022-08-03T08:30:28;4.97;;;1.70;;
14414;SDS011;7307;50.852;4.314;2022-08-03T08:32:55;4.32;;;1.67;;
14414;SDS011;7307;50.852;4.314;2022-08-03T08:35:21;4.07;;;1.80;;
14414;SDS011;7307;50.852;4.314;2022-08-03T08:37:47;5.10;;;1.98;;
14414;SDS011;7307;50.852;4.314;2022-08-03T08:40:13;4.63;;;1.73;;
14414;SDS011;7307;50.852;4.314;2022-08-03T08:42:39;3.13;;;1.45;;
14414;SDS011;7307;50.852;4.314;2022-08-03T08:45:08;2.85;;;1.50;;
14414;SDS011;7307;50.852;4.314;2022-08-03T08:47:39;3.42;;;1.52;;
14414;SDS011;7307;50.852;4.314;2022-08-03T08:50:07;2.83;;;1.63;;
14414;SDS011;7307;50.852;4.314;2022-08-03T08:52:33;5.43;;;1.80;;
14414;SDS011;7307;50.852;4.314;2022-08-03T08:55:03;5.03;;;1.60;;
14414;SDS011;7307;50.852;4.314;2022-08-03T08:57:34;3.10;;;1.48;;
14414;SDS011;7307;50.852;4.314;2022-08-03T09:00:02;2.10;;;1.40;;
14414;SDS011;7307;50.852;4.314;2022-08-03T09:02:30;2.65;;;1.40;;
14414;SDS011;7307;50.852;4.314;2022-08-03T09:04:56;3.78;;;1.50;;
14414;SDS011;7307;50.852;4.314;2022-08-03T09:07:22;3.15;;;1.40;;
14414;SDS011;7307;50.852;4.314;2022-08-03T09:09:48;2.85;;;1.40;;
14414;SDS011;7307;50.852;4.314;2022-08-03T09:12:14;2.72;;;1.52;;
14414;SDS011;7307;50.852;4.314;2022-08-03T09:14:39;5.72;;;1.80;;
14414;SDS011;7307;50.852;4.314;2022-08-03T09:17:05;3.17;;;1.42;;
14414;SDS011;7307;50.852;4.314;2022-08-03T09:19:32;2.67;;;1.63;;
14414;SDS011;7307;50.852;4.314;2022-08-03T09:24:52;3.20;;;1.30;;
14414;SDS011;7307;50.852;4.314;2022-08-03T09:27:20;1.90;;;1.05;;
14414;SDS011;7307;50.852;4.314;2022-08-03T09:29:47;2.63;;;1.40;;
14414;SDS011;7307;50.852;4.314;2022-08-03T09:32:13;4.70;;;1.50;;
14414;SDS011;7307;50.852;4.314;2022-08-03T09:34:39;4.15;;;1.50;;
14414;SDS011;7307;50.852;4.314;2022-08-03T09:37:11;3.25;;;1.40;;
14414;SDS011;7307;50.852;4.314;2022-08-03T09:39:41;2.17;;;1.40;;
14414;SDS011;7307;50.852;4.314;2022-08-03T09:42:13;3.60;;;1.48;;
14414;SDS011;7307;50.852;4.314;2022-08-03T09:47:08;5.07;;;1.48;;
14414;SDS011;7307;50.852;4.314;2022-08-03T09:49:35;3.28;;;1.48;;
14414;SDS011;7307;50.852;4.314;2022-08-03T09:52:15;2.20;;;1.30;;
14414;SDS011;7307;50.852;4.314;2022-08-03T09:54:53;2.42;;;1.48;;
14414;SDS011;7307;50.852;4.314;2022-08-03T09:57:22;4.00;;;1.30;;
14414;SDS011;7307;50.852;4.314;2022-08-03T09:59:49;2.13;;;1.38;;
14414;SDS011;7307;50.852;4.314;2022-08-03T10:02:22;1.73;;;1.30;;
14414;SDS011;7307;50.852;4.314;2022-08-03T10:04:50;2.38;;;1.20;;
14414;SDS011;7307;50.852;4.314;2022-08-03T10:07:17;2.58;;;1.60;;
14414;SDS011;7307;50.852;4.314;2022-08-03T10:09:54;3.00;;;1.38;;
14414;SDS011;7307;50.852;4.314;2022-08-03T10:12:22;2.08;;;1.30;;
14414;SDS011;7307;50.852;4.314;2022-08-03T10:14:48;2.88;;;1.30;;
14414;SDS011;7307;50.852;4.314;2022-08-03T10:17:14;2.47;;;1.08;;
14414;SDS011;7307;50.852;4.314;2022-08-03T10:19:40;2.15;;;1.33;;
14414;SDS011;7307;50.852;4.314;2022-08-03T10:22:08;5.07;;;1.35;;
14414;SDS011;7307;50.852;4.314;2022-08-03T10:27:23;1.95;;;1.20;;
14414;SDS011;7307;50.852;4.314;2022-08-03T10:29:51;2.75;;;1.33;;
14414;SDS011;7307;50.852;4.314;2022-08-03T10:35:05;3.92;;;1.30;;
14414;SDS011;7307;50.852;4.314;2022-08-03T10:37:44;2.35;;;1.40;;
14414;SDS011;7307;50.852;4.314;2022-08-03T10:40:19;1.35;;;1.00;;
14414;SDS011;7307;50.852;4.314;2022-08-03T10:42:46;2.45;;;1.20;;
14414;SDS011;7307;50.852;4.314;2022-08-03T10:45:18;3.83;;;1.40;;
14414;SDS011;7307;50.852;4.314;2022-08-03T10:47:45;1.80;;;1.10;;
14414;SDS011;7307;50.852;4.314;2022-08-03T10:50:12;2.50;;;1.42;;
14414;SDS011;7307;50.852;4.314;2022-08-03T10:55:35;1.70;;;1.17;;
14414;SDS011;7307;50.852;4.314;2022-08-03T11:01:08;2.42;;;1.30;;
14414;SDS011;7307;50.852;4.314;2022-08-03T11:06:23;2.17;;;1.35;;
14414;SDS011;7307;50.852;4.314;2022-08-03T11:09:35;1.95;;;1.10;;
14414;SDS011;7307;50.852;4.314;2022-08-03T11:11:40;2.72;;;1.45;;
14414;SDS011;7307;50.852;4.314;2022-08-03T11:14:11;1.95;;;1.10;;
14414;SDS011;7307;50.852;4.314;2022-08-03T11:16:43;2.05;;;1.40;;
14414;SDS011;7307;50.852;4.314;2022-08-03T11:19:17;2.13;;;1.10;;
14414;SDS011;7307;50.852;4.314;2022-08-03T11:45:58;1.50;;;1.17;;
14414;SDS011;7307;50.852;4.314;2022-08-03T11:51:17;1.75;;;1.35;;
14414;SDS011;7307;50.852;4.314;2022-08-03T11:53:50;2.25;;;1.33;;
14414;SDS011;7307;50.852;4.314;2022-08-03T11:56:23;1.85;;;1.08;;
14414;SDS011;7307;50.852;4.314;2022-08-03T11:58:50;2.00;;;1.05;;
14414;SDS011;7307;50.852;4.314;2022-08-03T12:01:21;1.83;;;0.90;;
14414;SDS011;7307;50.852;4.314;2022-08-03T12:03:47;1.25;;;1.00;;
14414;SDS011;7307;50.852;4.314;2022-08-03T12:06:14;1.83;;;1.20;;
14414;SDS011;7307;50.852;4.314;2022-08-03T12:08:44;2.17;;;1.38;;
14414;SDS011;7307;50.852;4.314;2022-08-03T12:11:11;1.85;;;1.25;;
14414;SDS011;7307;50.852;4.314;2022-08-03T12:13:40;1.80;;;1.30;;
14414;SDS011;7307;50.852;4.314;2022-08-03T12:16:07;2.80;;;1.10;;
14414;SDS011;7307;50.852;4.314;2022-08-03T12:18:33;2.45;;;0.82;;
14414;SDS011;7307;50.852;4.314;2022-08-03T12:21:09;1.98;;;1.35;;
14414;SDS011;7307;50.852;4.314;2022-08-03T12:23:37;2.17;;;1.40;;
14414;SDS011;7307;50.852;4.314;2022-08-03T12:26:07;3.08;;;1.30;;
14414;SDS011;7307;50.852;4.314;2022-08-03T12:28:34;2.25;;;1.23;;
14414;SDS011;7307;50.852;4.314;2022-08-03T12:31:01;1.50;;;1.00;;
14414;SDS011;7307;50.852;4.314;2022-08-03T12:33:30;1.73;;;1.10;;
14414;SDS011;7307;50.852;4.314;2022-08-03T12:36:11;1.40;;;1.10;;
14414;SDS011;7307;50.852;4.314;2022-08-03T12:38:37;1.73;;;1.27;;
14414;SDS011;7307;50.852;4.314;2022-08-03T12:43:30;1.25;;;1.08;;
14414;SDS011;7307;50.852;4.314;2022-08-03T12:46:06;2.08;;;1.20;;
14414;SDS011;7307;50.852;4.314;2022-08-03T12:48:32;1.27;;;1.10;;
14414;SDS011;7307;50.852;4.314;2022-08-03T12:51:08;2.05;;;1.10;;
14414;SDS011;7307;50.852;4.314;2022-08-03T12:53:34;1.45;;;1.00;;
14414;SDS011;7307;50.852;4.314;2022-08-03T12:56:03;2.40;;;1.23;;
14414;SDS011;7307;50.852;4.314;2022-08-03T12:58:30;2.50;;;1.25;;
14414;SDS011;7307;50.852;4.314;2022-08-03T13:01:00;1.98;;;1.00;;
14414;SDS011;7307;50.852;4.314;2022-08-03T13:03:37;1.38;;;0.98;;
14414;SDS011;7307;50.852;4.314;2022-08-03T13:06:09;1.30;;;1.10;;
14414;SDS011;7307;50.852;4.314;2022-08-03T13:08:39;2.25;;;0.90;;
14414;SDS011;7307;50.852;4.314;2022-08-03T13:11:21;1.20;;;1.00;;
14414;SDS011;7307;50.852;4.314;2022-08-03T13:13:52;1.25;;;1.00;;
14414;SDS011;7307;50.852;4.314;2022-08-03T13:16:19;1.77;;;1.05;;
14414;SDS011;7307;50.852;4.314;2022-08-03T13:18:46;1.35;;;1.00;;
14414;SDS011;7307;50.852;4.314;2022-08-03T13:21:16;2.33;;;1.30;;
14414;SDS011;7307;50.852;4.314;2022-08-03T13:23:43;1.70;;;1.08;;
14414;SDS011;7307;50.852;4.314;2022-08-03T13:26:09;1.13;;;0.98;;
14414;SDS011;7307;50.852;4.314;2022-08-03T13:28:36;1.10;;;1.00;;
14414;SDS011;7307;50.852;4.314;2022-08-03T13:31:05;1.60;;;1.10;;
14414;SDS011;7307;50.852;4.314;2022-08-03T13:33:30;1.77;;;0.90;;
14414;SDS011;7307;50.852;4.314;2022-08-03T13:35:59;1.20;;;1.00;;
14414;SDS011;7307;50.852;4.314;2022-08-03T13:38:28;1.55;;;1.17;;
14414;SDS011;7307;50.852;4.314;2022-08-03T13:41:03;1.45;;;1.13;;
14414;SDS011;7307;50.852;4.314;2022-08-03T13:43:29;1.23;;;0.88;;
14414;SDS011;7307;50.852;4.314;2022-08-03T13:45:55;1.52;;;1.25;;
14414;SDS011;7307;50.852;4.314;2022-08-03T13:48:21;1.20;;;1.00;;
14414;SDS011;7307;50.852;4.314;2022-08-03T13:50:46;1.25;;;1.13;;
14414;SDS011;7307;50.852;4.314;2022-08-03T13:53:12;1.20;;;1.00;;
14414;SDS011;7307;50.852;4.314;2022-08-03T13:55:37;1.02;;;0.90;;
14414;SDS011;7307;50.852;4.314;2022-08-03T13:58:03;1.38;;;0.95;;
14414;SDS011;7307;50.852;4.314;2022-08-03T14:00:31;2.83;;;1.20;;
14414;SDS011;7307;50.852;4.314;2022-08-03T14:03:00;1.20;;;1.10;;
14414;SDS011;7307;50.852;4.314;2022-08-03T14:05:26;1.15;;;1.02;;
14414;SDS011;7307;50.852;4.314;2022-08-03T14:07:52;0.98;;;0.90;;
14414;SDS011;7307;50.852;4.314;2022-08-03T14:10:17;1.15;;;1.00;;
14414;SDS011;7307;50.852;4.314;2022-08-03T14:12:43;1.48;;;0.93;;
14414;SDS011;7307;50.852;4.314;2022-08-03T14:15:09;0.90;;;0.80;;
14414;SDS011;7307;50.852;4.314;2022-08-03T14:17:36;1.45;;;0.88;;
14414;SDS011;7307;50.852;4.314;2022-08-03T14:20:02;1.45;;;1.05;;
14414;SDS011;7307;50.852;4.314;2022-08-03T14:22:30;1.17;;;1.08;;
14414;SDS011;7307;50.852;4.314;2022-08-03T14:24:55;1.20;;;0.90;;
14414;SDS011;7307;50.852;4.314;2022-08-03T14:27:22;1.17;;;0.90;;
14414;SDS011;7307;50.852;4.314;2022-08-03T14:29:47;1.77;;;1.23;;
14414;SDS011;7307;50.852;4.314;2022-08-03T14:32:13;1.13;;;0.90;;
14414;SDS011;7307;50.852;4.314;2022-08-03T14:34:38;1.08;;;0.98;;
14414;SDS011;7307;50.852;4.314;2022-08-03T14:37:04;1.23;;;0.80;;
14414;SDS011;7307;50.852;4.314;2022-08-03T14:39:30;2.08;;;0.85;;
14414;SDS011;7307;50.852;4.314;2022-08-03T14:41:55;1.48;;;0.90;;
14414;SDS011;7307;50.852;4.314;2022-08-03T14:44:21;1.42;;;1.00;;
14414;SDS011;7307;50.852;4.314;2022-08-03T14:46:46;1.17;;;1.00;;
14414;SDS011;7307;50.852;4.314;2022-08-03T14:49:12;1.13;;;1.02;;
14414;SDS011;7307;50.852;4.314;2022-08-03T14:51:38;1.15;;;1.05;;
14414;SDS011;7307;50.852;4.314;2022-08-03T14:54:03;1.70;;;1.00;;
14414;SDS011;7307;50.852;4.314;2022-08-03T14:56:29;1.15;;;0.98;;
14414;SDS011;7307;50.852;4.314;2022-08-03T14:58:55;1.77;;;0.90;;
14414;SDS011;7307;50.852;4.314;2022-08-03T15:01:21;0.90;;;0.80;;
14414;SDS011;7307;50.852;4.314;2022-08-03T15:03:46;1.10;;;1.00;;
14414;SDS011;7307;50.852;4.314;2022-08-03T15:06:12;1.35;;;1.00;;
14414;SDS011;7307;50.852;4.314;2022-08-03T15:08:38;1.10;;;1.00;;
14414;SDS011;7307;50.852;4.314;2022-08-03T15:11:03;1.85;;;1.15;;
14414;SDS011;7307;50.852;4.314;2022-08-03T15:13:29;0.98;;;0.82;;
14414;SDS011;7307;50.852;4.314;2022-08-03T15:15:55;1.50;;;1.20;;
14414;SDS011;7307;50.852;4.314;2022-08-03T15:18:21;0.80;;;0.80;;
14414;SDS011;7307;50.852;4.314;2022-08-03T15:20:47;1.25;;;1.02;;
14414;SDS011;7307;50.852;4.314;2022-08-03T15:23:14;1.35;;;0.95;;
14414;SDS011;7307;50.852;4.314;2022-08-03T15:25:41;2.00;;;1.17;;
14414;SDS011;7307;50.852;4.314;2022-08-03T15:28:07;2.03;;;1.20;;
14414;SDS011;7307;50.852;4.314;2022-08-03T15:30:33;1.95;;;1.10;;
14414;SDS011;7307;50.852;4.314;2022-08-03T15:33:01;2.20;;;1.10;;
14414;SDS011;7307;50.852;4.314;2022-08-03T15:35:26;1.27;;;0.98;;
14414;SDS011;7307;50.852;4.314;2022-08-03T15:37:52;2.58;;;0.80;;
14414;SDS011;7307;50.852;4.314;2022-08-03T15:40:18;0.98;;;0.85;;
14414;SDS011;7307;50.852;4.314;2022-08-03T15:42:44;1.48;;;1.00;;
14414;SDS011;7307;50.852;4.314;2022-08-03T15:45:10;1.00;;;0.88;;
14414;SDS011;7307;50.852;4.314;2022-08-03T15:47:36;4.13;;;1.20;;
14414;SDS011;7307;50.852;4.314;2022-08-03T15:50:01;3.25;;;1.00;;
14414;SDS011;7307;50.852;4.314;2022-08-03T15:52:27;3.35;;;1.40;;
14414;SDS011;7307;50.852;4.314;2022-08-03T15:54:53;2.05;;;0.98;;
14414;SDS011;7307;50.852;4.314;2022-08-03T15:57:19;2.72;;;1.10;;
14414;SDS011;7307;50.852;4.314;2022-08-03T15:59:44;1.55;;;1.10;;
14414;SDS011;7307;50.852;4.314;2022-08-03T16:02:10;3.08;;;0.95;;